Time;durP1;ratioP1;P1;durP2;ratioP2;P2;SDS_P1;SDS_P2;PMS_P1;PMS_P2;Temp;Humidity;BMP_temperature;BMP_pressure;BME280_temperature;BME280_humidity;BME280_pressure;Samples;Min_cycle;Max_cycle;Signal;HPM_P1;HPM_P2
2023/05/20 00:00:33;;;;;;;12.70;7.10;;;;;;;12.49;83.44;101294.66;4223492;28;20285;-66
2023/05/20 00:02:59;;;;;;;21.83;7.27;;;;;;;12.57;82.47;101291.25;4209567;28;20394;-62
2023/05/20 00:05:27;;;;;;;16.83;6.40;;;;;;;12.68;81.35;101288.44;4207088;28;20235;-65
2023/05/20 00:07:53;;;;;;;12.43;6.30;;;;;;;12.66;81.41;101285.81;4206953;28;20237;-62
2023/05/20 00:10:20;;;;;;;10.97;6.07;;;;;;;12.42;81.69;101286.22;4207707;28;20236;-62
2023/05/20 00:12:46;;;;;;;11.87;6.17;;;;;;;12.31;82.28;101283.63;4206783;28;20232;-63
2023/05/20 00:15:13;;;;;;;13.60;6.37;;;;;;;12.30;82.35;101281.91;4211978;28;20229;-64
2023/05/20 00:17:40;;;;;;;14.73;5.83;;;;;;;12.30;81.93;101277.31;4215048;28;26194;-63
2023/05/20 00:20:07;;;;;;;11.67;5.73;;;;;;;12.41;80.97;101275.50;4212804;28;20261;-65
2023/05/20 00:22:34;;;;;;;10.03;5.20;;;;;;;12.33;81.30;101276.16;4211062;28;25149;-65
2023/05/20 00:25:00;;;;;;;9.73;5.30;;;;;;;12.31;81.41;101279.03;4210486;28;20302;-62
2023/05/20 00:27:27;;;;;;;11.40;5.40;;;;;;;12.43;80.49;101271.63;4207698;28;22801;-62
2023/05/20 00:29:53;;;;;;;17.57;5.83;;;;;;;12.41;80.59;101276.34;4210524;28;21189;-64
2023/05/20 00:32:20;;;;;;;9.47;5.30;;;;;;;12.39;80.50;101277.47;4215634;28;20247;-63
2023/05/20 00:34:57;;;;;;;8.77;5.03;;;;;;;12.51;79.27;101279.06;4208605;28;20326;-63
2023/05/20 00:37:24;;;;;;;9.97;4.60;;;;;;;12.54;78.96;101276.09;4208875;28;20232;-64
2023/05/20 00:39:50;;;;;;;10.67;5.60;;;;;;;12.30;80.29;101269.16;4211237;28;20231;-63
2023/05/20 00:42:24;;;;;;;10.97;4.90;;;;;;;12.27;80.43;101269.47;4230405;28;20241;-61
2023/05/20 00:44:51;;;;;;;8.53;5.03;;;;;;;12.34;80.01;101267.03;4212095;28;20462;-62
2023/05/20 00:47:19;;;;;;;14.57;5.23;;;;;;;12.27;80.38;101266.75;4211286;28;20236;-61
2023/05/20 00:49:47;;;;;;;11.30;5.20;;;;;;;12.16;80.24;101264.97;4198004;28;20233;-61
2023/05/20 00:52:17;;;;;;;12.27;4.80;;;;;;;12.17;80.48;101266.69;4211709;28;20566;-62
2023/05/20 00:54:44;;;;;;;7.70;4.53;;;;;;;12.40;79.92;101273.78;4200086;28;20255;-64
2023/05/20 00:57:11;;;;;;;12.63;4.50;;;;;;;12.61;78.52;101270.97;4212919;28;20532;-61
2023/05/20 00:59:38;;;;;;;9.40;4.57;;;;;;;12.60;78.51;101271.97;4227241;28;20240;-63
2023/05/20 01:02:04;;;;;;;11.53;4.90;;;;;;;12.36;79.34;101270.47;4218233;28;20235;-60
2023/05/20 01:04:32;;;;;;;8.97;4.13;;;;;;;12.38;79.36;101278.47;4216664;28;22476;-63
2023/05/20 01:07:01;;;;;;;10.40;4.80;;;;;;;12.41;78.99;101279.06;4197742;28;20244;-64
2023/05/20 01:09:30;;;;;;;11.70;4.87;;;;;;;12.33;79.09;101277.03;4210122;28;21606;-64
2023/05/20 01:12:21;;;;;;;8.43;4.70;;;;;;;12.43;78.69;101265.31;4208031;28;22432;-63
2023/05/20 01:14:50;;;;;;;9.80;4.43;;;;;;;12.32;78.81;101280.75;4215920;28;21257;-65
2023/05/20 01:17:19;;;;;;;10.93;4.47;;;;;;;12.32;78.86;101274.44;4209856;28;21481;-65
2023/05/20 01:19:47;;;;;;;10.90;4.77;;;;;;;12.23;79.20;101270.72;4222949;28;20648;-64
2023/05/20 01:22:15;;;;;;;8.60;4.30;;;;;;;12.32;78.87;101277.16;4206529;28;20283;-62
2023/05/20 01:24:47;;;;;;;10.40;4.47;;;;;;;12.31;78.63;101276.31;4209385;28;20800;-63
2023/05/20 01:27:13;;;;;;;12.03;4.17;;;;;;;12.27;78.13;101274.00;4206447;28;20358;-62
2023/05/20 01:29:41;;;;;;;16.07;4.23;;;;;;;12.24;78.34;101272.44;4229703;28;20857;-60
2023/05/20 01:32:11;;;;;;;10.37;4.03;;;;;;;12.35;78.30;101280.47;4221578;28;25175;-61
2023/05/20 01:34:40;;;;;;;13.77;4.23;;;;;;;12.40;77.71;101277.34;4216244;28;20302;-63
2023/05/20 01:37:07;;;;;;;6.93;3.93;;;;;;;12.24;78.38;101269.72;4213253;28;20519;-62
2023/05/20 01:39:36;;;;;;;8.83;4.10;;;;;;;12.25;78.60;101268.72;4217107;28;22112;-63
2023/05/20 01:42:03;;;;;;;7.67;3.70;;;;;;;12.20;78.58;101266.44;4211522;28;21281;-62
2023/05/20 01:44:31;;;;;;;10.77;3.77;;;;;;;12.29;78.18;101263.88;4192416;28;20553;-63
2023/05/20 01:46:58;;;;;;;8.40;4.03;;;;;;;12.19;78.63;101272.00;4208724;28;21327;-62
2023/05/20 01:49:25;;;;;;;12.03;4.53;;;;;;;12.13;78.75;101261.66;4214547;28;20327;-64
2023/05/20 01:51:52;;;;;;;8.30;4.50;;;;;;;12.12;79.16;101262.69;4207443;28;20617;-64
2023/05/20 01:54:18;;;;;;;11.53;4.17;;;;;;;11.97;79.57;101235.06;4206547;28;22245;-61
2023/05/20 01:56:45;;;;;;;7.03;3.90;;;;;;;12.08;79.42;101262.09;4217597;28;20341;-63
2023/05/20 01:59:12;;;;;;;10.37;4.33;;;;;;;12.14;78.91;101245.28;4220991;28;20240;-62
2023/05/20 02:01:38;;;;;;;9.80;4.33;;;;;;;12.04;79.48;101247.06;4216396;28;20238;-62
2023/05/20 02:04:05;;;;;;;10.27;4.13;;;;;;;12.13;79.01;101251.69;4212124;28;20228;-62
2023/05/20 02:06:32;;;;;;;8.40;4.13;;;;;;;12.01;79.60;101247.34;4215544;28;20223;-63
2023/05/20 02:08:58;;;;;;;13.57;4.30;;;;;;;11.98;79.96;101253.06;4192260;28;22104;-64
2023/05/20 02:11:25;;;;;;;12.63;4.23;;;;;;;12.04;79.68;101252.50;4210573;28;20256;-62
2023/05/20 02:13:51;;;;;;;11.73;4.20;;;;;;;12.07;79.39;101246.81;4213293;28;20244;-61
2023/05/20 02:16:18;;;;;;;7.87;4.37;;;;;;;12.15;78.86;101252.41;4206238;28;20319;-61
2023/05/20 02:18:45;;;;;;;9.90;3.83;;;;;;;12.20;78.56;101252.84;4213027;28;20305;-62
2023/05/20 02:21:11;;;;;;;9.27;3.97;;;;;;;12.23;78.60;101256.28;4199053;28;20247;-65
2023/05/20 02:23:38;;;;;;;7.37;3.60;;;;;;;12.11;78.75;101248.25;4215572;28;20271;-65
2023/05/20 02:26:04;;;;;;;8.20;4.10;;;;;;;12.17;78.86;101258.53;4220304;28;20592;-61
2023/05/20 02:28:31;;;;;;;11.53;3.80;;;;;;;12.04;79.32;101256.09;4212507;28;20596;-66
2023/05/20 02:30:58;;;;;;;7.10;3.83;;;;;;;12.07;78.76;101254.09;4214053;28;20397;-64
2023/05/20 02:33:27;;;;;;;6.77;3.77;;;;;;;12.16;78.83;101253.25;4213410;28;20232;-63
2023/05/20 02:35:54;;;;;;;10.30;3.77;;;;;;;12.19;78.67;101259.28;4217466;28;20291;-63
2023/05/20 02:38:21;;;;;;;8.13;3.60;;;;;;;11.97;79.26;101262.19;4214864;28;20240;-62
2023/05/20 02:40:47;;;;;;;8.20;4.13;;;;;;;12.11;78.82;101258.25;4207243;28;22088;-62
2023/05/20 02:43:14;;;;;;;6.70;3.40;;;;;;;12.20;78.36;101266.44;4197705;28;21627;-63
2023/05/20 02:45:40;;;;;;;8.13;3.50;;;;;;;12.30;77.74;101269.16;4193395;28;20244;-62
2023/05/20 02:48:08;;;;;;;8.50;4.17;;;;;;;12.26;77.68;101265.03;4211880;28;20240;-63
2023/05/20 02:50:38;;;;;;;7.30;3.87;;;;;;;12.18;78.25;101267.56;4212070;28;21118;-66
2023/05/20 02:53:04;;;;;;;8.60;3.73;;;;;;;12.21;78.13;101267.28;4206575;28;22862;-64
2023/05/20 02:55:33;;;;;;;10.20;3.73;;;;;;;11.99;79.26;101271.91;4207990;28;20294;-63
2023/05/20 02:58:01;;;;;;;11.20;4.33;;;;;;;11.87;79.92;101265.69;4216984;28;20228;-63
2023/05/20 03:00:29;;;;;;;9.13;3.60;;;;;;;11.95;79.57;101262.31;4207288;28;20229;-65
2023/05/20 03:02:57;;;;;;;7.43;3.70;;;;;;;11.92;79.95;101262.56;4221894;28;20752;-63
2023/05/20 03:05:26;;;;;;;10.70;4.00;;;;;;;12.07;79.23;101260.38;4201248;28;20236;-64
2023/05/20 03:07:52;;;;;;;8.93;4.23;;;;;;;12.09;79.30;101260.25;4212963;28;20232;-61
2023/05/20 03:10:19;;;;;;;10.67;4.43;;;;;;;11.96;79.47;101260.44;4222290;28;20302;-65
2023/05/20 03:12:45;;;;;;;10.33;3.80;;;;;;;11.91;79.92;101260.00;4215959;28;21316;-64
2023/05/20 03:15:12;;;;;;;11.23;3.93;;;;;;;12.08;79.14;101262.09;4222217;28;20239;-64
2023/05/20 03:17:39;;;;;;;7.93;3.70;;;;;;;12.25;78.48;101262.44;4197430;28;20271;-64
2023/05/20 03:20:06;;;;;;;10.17;3.80;;;;;;;12.13;79.06;101269.81;4217386;28;20236;-66
2023/05/20 03:22:33;;;;;;;10.43;3.73;;;;;;;11.90;79.48;101264.53;4204461;28;20232;-63
2023/05/20 03:25:01;;;;;;;8.13;3.47;;;;;;;12.07;79.32;101270.38;4199375;28;20376;-63
2023/05/20 03:27:27;;;;;;;8.67;3.80;;;;;;;12.24;78.29;101266.13;4204228;28;20571;-62
2023/05/20 03:29:54;;;;;;;7.67;3.70;;;;;;;12.25;78.47;101274.16;4212577;28;20264;-63
2023/05/20 03:32:21;;;;;;;8.53;3.63;;;;;;;12.10;78.82;101268.22;4209867;28;21103;-64
2023/05/20 03:34:47;;;;;;;12.17;3.80;;;;;;;12.12;78.83;101266.25;4206118;28;22481;-64
2023/05/20 03:37:14;;;;;;;10.77;4.10;;;;;;;12.18;78.47;101264.84;4215324;28;20246;-61
2023/05/20 03:39:40;;;;;;;8.87;3.60;;;;;;;12.36;77.79;101260.47;4212955;28;21841;-64
2023/05/20 03:42:07;;;;;;;7.90;4.10;;;;;;;12.38;78.06;101270.31;4206215;28;20308;-67
2023/05/20 03:44:34;;;;;;;11.57;3.73;;;;;;;12.32;78.23;101269.00;4219665;28;20231;-65
2023/05/20 03:47:00;;;;;;;6.23;3.67;;;;;;;12.46;77.71;101265.91;4218396;28;20303;-63
2023/05/20 03:49:27;;;;;;;9.77;3.93;;;;;;;12.51;77.10;101266.38;4212489;28;21028;-62
2023/05/20 03:51:54;;;;;;;11.03;3.87;;;;;;;12.45;77.45;101263.34;4211158;28;21193;-63
2023/05/20 03:54:20;;;;;;;8.07;3.77;;;;;;;12.56;77.51;101263.25;4222885;28;20231;-61
2023/05/20 03:56:48;;;;;;;10.23;4.30;;;;;;;12.58;77.02;101269.38;4224895;28;21436;-63
2023/05/20 03:59:14;;;;;;;10.37;3.80;;;;;;;12.55;77.33;101266.94;4211442;28;21046;-62
2023/05/20 04:01:41;;;;;;;9.50;4.10;;;;;;;12.65;76.86;101262.38;4202031;28;22267;-62
2023/05/20 04:04:08;;;;;;;6.23;3.53;;;;;;;12.68;76.89;101261.25;4183464;28;22993;-62
2023/05/20 04:06:34;;;;;;;10.60;4.13;;;;;;;12.66;77.06;101272.25;4210591;28;20524;-64
2023/05/20 04:09:01;;;;;;;7.43;3.70;;;;;;;12.58;77.20;101265.81;4213738;28;20247;-66
2023/05/20 04:11:28;;;;;;;7.63;4.10;;;;;;;12.52;77.94;101264.50;4217523;28;21850;-63
2023/05/20 04:13:54;;;;;;;8.10;3.60;;;;;;;12.64;77.61;101267.94;4205319;28;20307;-63
2023/05/20 04:16:21;;;;;;;11.77;3.87;;;;;;;12.80;76.82;101268.25;4207966;28;20237;-64
2023/05/20 04:18:47;;;;;;;10.23;4.23;;;;;;;12.79;76.54;101274.69;4202955;28;20241;-64
2023/05/20 04:21:14;;;;;;;11.87;4.07;;;;;;;12.79;76.68;101271.97;4189168;28;20252;-62
2023/05/20 04:23:41;;;;;;;7.93;4.07;;;;;;;12.87;76.59;101276.72;4210203;28;20225;-64
2023/05/20 04:26:07;;;;;;;9.13;4.20;;;;;;;12.87;76.10;101274.00;4213473;28;20233;-65
2023/05/20 04:28:36;;;;;;;8.80;3.80;;;;;;;13.00;75.64;101282.72;4210959;28;20236;-67
2023/05/20 04:31:03;;;;;;;11.63;3.90;;;;;;;13.08;75.69;101279.28;4195928;28;20292;-64
2023/05/20 04:33:31;;;;;;;10.37;3.80;;;;;;;13.16;75.73;101279.44;4213810;28;20231;-64
2023/05/20 04:35:58;;;;;;;8.10;4.10;;;;;;;13.16;75.51;101282.16;4203273;28;20229;-63
2023/05/20 04:38:31;;;;;;;13.43;4.27;;;;;;;13.32;74.82;101270.72;4215557;28;20240;-62
2023/05/20 04:40:58;;;;;;;6.87;3.73;;;;;;;13.42;74.49;101273.44;4195642;28;20260;-62
2023/05/20 04:43:28;;;;;;;14.03;4.10;;;;;;;13.46;74.29;101268.56;4203561;28;20304;-64
2023/05/20 04:45:56;;;;;;;7.47;3.70;;;;;;;13.56;74.20;101273.97;4208826;28;20677;-63
2023/05/20 04:48:22;;;;;;;11.47;4.03;;;;;;;13.65;73.36;101269.50;4217371;28;20291;-63
2023/05/20 04:50:50;;;;;;;7.13;3.70;;;;;;;13.80;73.38;101273.47;4205148;28;22108;-65
2023/05/20 04:53:23;;;;;;;9.67;3.90;;;;;;;13.98;72.86;101259.09;4210342;28;20229;-63
2023/05/20 04:55:53;;;;;;;11.67;3.73;;;;;;;14.18;71.99;101265.31;4198715;28;20228;-62
2023/05/20 04:58:23;;;;;;;8.23;3.97;;;;;;;14.25;72.17;101269.16;4210863;28;20245;-66
2023/05/20 05:00:50;;;;;;;7.40;3.77;;;;;;;14.34;71.71;101265.53;4216657;28;20295;-63
2023/05/20 05:03:17;;;;;;;10.23;4.03;;;;;;;14.46;71.48;101265.31;4214603;28;20353;-64
2023/05/20 05:05:44;;;;;;;7.30;3.60;;;;;;;14.72;70.69;101262.72;4209414;28;20241;-64
2023/05/20 05:08:10;;;;;;;8.93;3.70;;;;;;;14.74;70.08;101269.72;4207595;28;20244;-63
2023/05/20 05:10:37;;;;;;;6.70;3.57;;;;;;;14.80;70.01;101273.72;4211364;28;20236;-64
2023/05/20 05:13:03;;;;;;;12.30;4.60;;;;;;;14.69;69.88;101271.22;4212308;28;20312;-66
2023/05/20 05:15:30;;;;;;;9.30;3.70;;;;;;;15.05;69.15;101280.25;4213666;28;20245;-64
2023/05/20 05:17:57;;;;;;;8.23;3.87;;;;;;;15.21;69.16;101281.41;4207837;28;20252;-64
2023/05/20 05:20:24;;;;;;;9.50;3.73;;;;;;;15.36;68.36;101279.00;4209467;28;20279;-63
2023/05/20 05:22:50;;;;;;;7.50;3.47;;;;;;;15.42;67.94;101277.50;4209169;28;20581;-64
2023/05/20 05:25:17;;;;;;;5.67;3.40;;;;;;;15.51;67.99;101271.97;4211993;28;20237;-62
2023/05/20 05:27:44;;;;;;;11.77;3.97;;;;;;;15.59;67.48;101268.41;4198919;28;20527;-63
2023/05/20 05:30:10;;;;;;;7.60;3.77;;;;;;;15.74;66.26;101273.28;4213415;28;21177;-63
2023/05/20 05:32:37;;;;;;;7.93;3.80;;;;;;;15.67;66.55;101276.66;4217779;28;22401;-65
2023/05/20 05:35:04;;;;;;;5.63;3.23;;;;;;;15.74;66.70;101276.00;4220865;28;20228;-63
2023/05/20 05:37:33;;;;;;;10.37;4.03;;;;;;;16.05;65.55;101281.84;4215679;28;21153;-62
2023/05/20 05:40:00;;;;;;;10.00;4.07;;;;;;;16.09;65.20;101274.19;4213766;28;20237;-66
2023/05/20 05:42:27;;;;;;;7.60;3.50;;;;;;;15.94;65.81;101272.06;4212953;28;20244;-66
2023/05/20 05:44:53;;;;;;;9.37;4.50;;;;;;;15.88;66.64;101280.91;4215491;28;20607;-67
2023/05/20 05:47:20;;;;;;;8.20;3.53;;;;;;;16.12;65.81;101280.22;4215954;28;20242;-69
2023/05/20 05:49:47;;;;;;;9.67;3.50;;;;;;;15.92;66.10;101268.66;4215235;28;20255;-65
2023/05/20 05:52:13;;;;;;;8.53;3.67;;;;;;;16.29;65.37;101283.00;4198843;28;20235;-68
2023/05/20 05:54:40;;;;;;;7.70;3.70;;;;;;;16.47;64.99;101283.75;4216541;28;20302;-66
2023/05/20 05:57:08;;;;;;;9.30;3.60;;;;;;;16.68;64.42;101289.81;4213148;28;20240;-66
2023/05/20 05:59:35;;;;;;;8.83;3.77;;;;;;;16.88;63.18;101287.63;4204553;28;20650;-70
2023/05/20 06:02:02;;;;;;;9.83;3.73;;;;;;;16.96;63.27;101290.38;4212632;28;20346;-69
2023/05/20 06:04:28;;;;;;;8.30;3.40;;;;;;;17.06;62.41;101284.78;4212971;28;20572;-68
2023/05/20 06:06:55;;;;;;;7.83;3.63;;;;;;;17.18;61.85;101285.31;4223328;28;20759;-67
2023/05/20 06:09:22;;;;;;;9.53;3.47;;;;;;;17.09;61.95;101284.41;4224063;28;20678;-68
2023/05/20 06:11:48;;;;;;;10.03;3.93;;;;;;;17.25;61.86;101278.97;4221541;28;20327;-68
2023/05/20 06:14:15;;;;;;;14.07;3.70;;;;;;;17.33;61.74;101283.59;4217712;28;20237;-65
2023/05/20 06:16:42;;;;;;;7.03;3.53;;;;;;;17.59;61.04;101277.06;4232793;28;20226;-68
2023/05/20 06:19:09;;;;;;;8.23;3.67;;;;;;;17.86;60.52;101273.06;4213630;28;20234;-66
2023/05/20 06:21:35;;;;;;;6.73;3.77;;;;;;;17.91;60.07;101278.03;4211764;28;21834;-68
2023/05/20 06:24:02;;;;;;;11.63;3.60;;;;;;;18.25;59.28;101270.59;4211766;28;20333;-67
2023/05/20 06:26:29;;;;;;;10.87;3.40;;;;;;;18.42;57.71;101274.97;4247394;28;20244;-69
2023/05/20 06:28:56;;;;;;;9.27;3.67;;;;;;;18.75;57.84;101277.50;4230662;28;20252;-65
2023/05/20 06:31:22;;;;;;;9.83;3.70;;;;;;;19.02;56.99;101280.81;4226729;28;20236;-68
2023/05/20 06:33:49;;;;;;;7.97;3.67;;;;;;;19.25;56.28;101258.81;4214762;28;20240;-65
2023/05/20 06:36:16;;;;;;;5.40;3.07;;;;;;;19.12;57.13;101270.41;4243804;28;20236;-66
2023/05/20 06:38:43;;;;;;;6.07;3.20;;;;;;;18.95;56.57;101269.69;4224562;28;20301;-64
2023/05/20 06:41:09;;;;;;;8.27;3.80;;;;;;;19.00;56.60;101267.25;4218701;28;20232;-66
2023/05/20 06:43:36;;;;;;;6.67;3.40;;;;;;;19.12;56.71;101262.19;4213871;28;20232;-65
2023/05/20 06:46:03;;;;;;;12.97;4.03;;;;;;;19.22;56.18;101267.41;4224045;28;20239;-67
2023/05/20 06:48:30;;;;;;;8.10;3.60;;;;;;;18.98;56.52;101263.84;4214160;28;20896;-69
2023/05/20 06:50:56;;;;;;;10.47;3.80;;;;;;;19.45;56.35;101259.16;4237509;28;20445;-67
2023/05/20 06:53:23;;;;;;;9.03;3.40;;;;;;;19.58;55.31;101260.41;4225597;28;22463;-66
2023/05/20 06:55:54;;;;;;;11.93;3.90;;;;;;;20.55;53.22;101259.47;4211364;28;21628;-67
2023/05/20 06:58:20;;;;;;;6.10;3.60;;;;;;;20.00;54.69;101258.09;4226334;28;23257;-67
2023/05/20 07:00:47;;;;;;;11.10;3.70;;;;;;;21.82;50.44;101270.84;4205519;28;21832;-71
2023/05/20 07:03:14;;;;;;;10.20;3.77;;;;;;;22.89;47.42;101261.38;4210273;28;22125;-70
2023/05/20 07:05:40;;;;;;;10.60;4.07;;;;;;;23.59;45.56;101255.50;4215560;28;20229;-68
2023/05/20 07:08:07;;;;;;;7.23;3.60;;;;;;;24.83;42.58;101254.66;4225643;28;20244;-70
2023/05/20 07:10:33;;;;;;;7.83;3.73;;;;;;;25.52;41.41;101257.59;4216787;28;20323;-69
2023/05/20 07:13:00;;;;;;;12.73;3.50;;;;;;;25.78;40.53;101250.09;4212039;28;25309;-69
2023/05/20 07:15:27;;;;;;;8.53;3.63;;;;;;;26.81;38.20;101249.53;4209548;28;20231;-71
2023/05/20 07:17:54;;;;;;;7.80;3.57;;;;;;;25.92;39.82;101251.66;4219091;28;20266;-73
2023/05/20 07:20:20;;;;;;;8.40;3.43;;;;;;;26.84;38.87;101255.47;4187051;28;20237;-70
2023/05/20 07:22:49;;;;;;;7.60;3.93;;;;;;;26.04;40.23;101254.50;4221313;28;22500;-67
2023/05/20 07:25:16;;;;;;;10.63;3.47;;;;;;;25.73;40.19;101256.31;4211337;28;22010;-70
2023/05/20 07:27:42;;;;;;;6.13;3.07;;;;;;;26.50;39.14;101248.66;4219072;28;20357;-71
2023/05/20 07:30:09;;;;;;;15.10;5.50;;;;;;;25.60;41.03;101256.47;4206955;28;22448;-70
2023/05/20 07:32:36;;;;;;;8.40;3.63;;;;;;;25.36;40.74;101253.44;4203592;28;20233;-71
2023/05/20 07:35:03;;;;;;;9.97;3.47;;;;;;;25.20;41.78;101245.69;4207753;28;20279;-71
2023/05/20 07:37:30;;;;;;;11.27;3.90;;;;;;;24.26;43.66;101247.06;4208407;28;20238;-70
2023/05/20 07:39:56;;;;;;;11.60;3.97;;;;;;;23.17;45.92;101239.16;4204048;28;22972;-64
2023/05/20 07:42:23;;;;;;;8.13;3.93;;;;;;;23.05;47.53;101244.41;4209094;28;21843;-68
2023/05/20 07:44:49;;;;;;;10.03;3.97;;;;;;;24.05;45.58;101240.75;4191274;28;21900;-66
2023/05/20 07:47:16;;;;;;;6.80;3.50;;;;;;;24.32;44.04;101231.50;4199434;28;20232;-67
2023/05/20 07:49:43;;;;;;;11.50;3.43;;;;;;;24.65;43.29;101241.53;4196470;28;22115;-65
2023/05/20 07:52:10;;;;;;;8.93;3.73;;;;;;;25.05;43.13;101237.69;4225508;28;21610;-67
2023/05/20 07:54:36;;;;;;;8.70;3.50;;;;;;;24.58;44.17;101236.06;4209858;28;21573;-67
2023/05/20 07:57:03;;;;;;;7.53;3.30;;;;;;;24.51;43.73;101235.22;4241584;28;21050;-66
2023/05/20 07:59:30;;;;;;;12.67;4.07;;;;;;;23.99;45.22;101232.47;4227495;28;20812;-66
2023/05/20 08:01:57;;;;;;;12.83;4.03;;;;;;;24.37;43.86;101231.69;4223900;28;20238;-65
2023/05/20 08:04:24;;;;;;;26.17;11.03;;;;;;;24.80;44.24;101235.75;4214622;28;20876;-67
2023/05/20 08:06:51;;;;;;;11.53;3.60;;;;;;;24.53;43.48;101224.78;4222588;28;20227;-65
2023/05/20 08:09:18;;;;;;;10.17;3.43;;;;;;;25.12;42.70;101231.03;4249494;28;20240;-65
2023/05/20 08:11:45;;;;;;;6.27;3.23;;;;;;;24.54;43.12;101234.78;4232502;28;20236;-65
2023/05/20 08:14:13;;;;;;;8.47;3.10;;;;;;;24.45;44.32;101228.69;4219309;28;21024;-67
2023/05/20 08:16:41;;;;;;;9.40;3.90;;;;;;;23.64;45.87;101233.59;4221269;28;21497;-65
2023/05/20 08:19:07;;;;;;;7.17;3.57;;;;;;;23.95;45.51;101233.97;4214541;28;26291;-67
2023/05/20 08:21:34;;;;;;;6.93;4.10;;;;;;;24.45;44.76;101234.22;4248965;28;20298;-65
2023/05/20 08:24:01;;;;;;;9.10;3.77;;;;;;;24.15;44.68;101233.91;4226824;28;25502;-63
2023/05/20 08:26:27;;;;;;;13.83;3.90;;;;;;;24.42;45.05;101236.56;4209118;28;20244;-63
2023/05/20 08:28:54;;;;;;;10.67;3.40;;;;;;;24.32;44.17;101234.28;4242773;28;20233;-67
2023/05/20 08:31:21;;;;;;;11.33;3.80;;;;;;;24.39;45.12;101226.78;4228144;28;23485;-67
2023/05/20 08:33:49;;;;;;;6.30;3.00;;;;;;;24.34;45.18;101226.59;4222642;28;20374;-67
2023/05/20 08:36:18;;;;;;;7.23;3.47;;;;;;;24.59;44.04;101226.66;4234756;28;20237;-66
2023/05/20 08:38:44;;;;;;;6.33;3.17;;;;;;;24.72;43.65;101236.84;4268797;28;25541;-67
2023/05/20 08:41:11;;;;;;;9.63;3.10;;;;;;;24.63;44.28;101232.59;4232197;28;20235;-66
2023/05/20 08:43:38;;;;;;;10.43;3.17;;;;;;;24.03;44.66;101231.81;4221140;28;20524;-66
2023/05/20 08:46:05;;;;;;;9.73;3.40;;;;;;;24.55;44.69;101219.06;4223005;28;21151;-65
2023/05/20 08:48:32;;;;;;;4.67;3.07;;;;;;;23.66;47.17;101222.31;4226450;28;20247;-63
2023/05/20 08:51:02;;;;;;;10.63;3.40;;;;;;;23.41;47.06;101221.06;4218138;28;22725;-65
2023/05/20 08:53:28;;;;;;;8.17;3.57;;;;;;;23.71;46.64;101217.84;4210294;28;22469;-64
2023/05/20 08:55:59;;;;;;;13.07;3.30;;;;;;;24.24;45.16;101217.94;4217598;28;21881;-66
2023/05/20 08:58:28;;;;;;;14.07;3.80;;;;;;;24.27;45.93;101218.34;4224335;28;26860;-64
2023/05/20 09:00:55;;;;;;;8.13;3.00;;;;;;;24.67;43.89;101211.75;4213856;28;21548;-65
2023/05/20 09:03:23;;;;;;;8.83;3.17;;;;;;;23.96;45.33;101211.63;4212039;28;20278;-65
2023/05/20 09:05:50;;;;;;;8.17;3.30;;;;;;;23.78;45.77;101212.31;4220814;28;20597;-63
2023/05/20 09:08:16;;;;;;;9.80;3.40;;;;;;;23.85;46.11;101215.03;4228547;28;20240;-63
2023/05/20 09:10:43;;;;;;;8.37;3.47;;;;;;;24.05;45.95;101207.56;4218666;28;21829;-64
2023/05/20 09:13:10;;;;;;;12.47;3.73;;;;;;;23.91;46.80;101208.63;4237858;28;20232;-65
2023/05/20 09:15:37;;;;;;;9.50;3.57;;;;;;;24.71;44.14;101212.16;4216446;28;22179;-61
2023/05/20 09:18:07;;;;;;;6.60;3.57;;;;;;;24.49;45.47;101198.63;4218020;28;20235;-64
2023/05/20 09:20:36;;;;;;;11.83;3.97;;;;;;;24.77;45.34;101202.97;4214194;28;20529;-63
2023/05/20 09:23:04;;;;;;;10.40;3.33;;;;;;;24.48;45.37;101200.53;4212629;28;20246;-65
2023/05/20 09:25:31;;;;;;;9.60;4.00;;;;;;;24.49;47.41;101204.16;4205730;28;20658;-65
2023/05/20 09:27:58;;;;;;;12.47;3.83;;;;;;;24.65;45.06;101203.66;4231346;28;20318;-65
2023/05/20 09:30:25;;;;;;;7.33;3.60;;;;;;;24.67;44.45;101207.06;4200607;28;20586;-65
2023/05/20 09:32:55;;;;;;;5.93;3.30;;;;;;;24.75;44.73;101211.50;4192520;28;20293;-66
2023/05/20 09:35:23;;;;;;;8.20;3.70;;;;;;;24.48;44.66;101205.25;4233901;28;20243;-63
2023/05/20 09:37:54;;;;;;;6.77;3.87;;;;;;;24.10;45.88;101200.53;4215385;28;20310;-66
2023/05/20 09:40:29;;;;;;;9.27;3.87;;;;;;;24.41;45.71;101209.97;4216131;28;20887;-67
2023/05/20 09:43:00;;;;;;;7.77;3.40;;;;;;;24.07;46.06;101195.41;4203943;28;20236;-63
2023/05/20 09:45:27;;;;;;;8.33;3.60;;;;;;;23.97;45.83;101198.66;4210911;28;22045;-63
2023/05/20 09:47:55;;;;;;;7.17;3.43;;;;;;;23.69;46.99;101189.56;4216690;28;21589;-67
2023/05/20 09:50:23;;;;;;;11.20;3.20;;;;;;;23.68;47.14;101193.38;4208963;28;26501;-63
2023/05/20 09:52:51;;;;;;;8.07;4.00;;;;;;;23.46;47.22;101191.94;4218312;28;20232;-63
2023/05/20 09:55:19;;;;;;;7.87;3.83;;;;;;;23.19;48.95;101197.50;4206111;28;20275;-65
2023/05/20 09:57:46;;;;;;;13.33;4.67;;;;;;;22.96;48.96;101193.22;4227330;28;20888;-70
2023/05/20 10:00:16;;;;;;;9.23;3.80;;;;;;;23.05;49.06;101193.84;4224429;28;21172;-66
2023/05/20 10:02:45;;;;;;;7.70;3.93;;;;;;;23.37;47.20;101185.78;4198090;28;20266;-63
2023/05/20 10:05:18;;;;;;;7.77;3.77;;;;;;;23.46;47.84;101183.63;4227614;28;21151;-63
2023/05/20 10:07:53;;;;;;;11.57;4.00;;;;;;;23.70;47.89;101185.72;4239412;28;20291;-63
2023/05/20 10:10:32;;;;;;;10.87;4.13;;;;;;;23.65;46.94;101184.66;4224556;28;21180;-65
2023/05/20 10:13:13;;;;;;;9.53;4.27;;;;;;;23.68;47.19;101187.84;4201564;28;23307;-67
2023/05/20 10:16:16;;;;;;;6.33;4.17;;;;;;;23.43;47.13;101184.94;4223815;28;20324;-63
2023/05/20 10:19:20;;;;;;;11.90;4.13;;;;;;;23.11;47.99;101181.97;4202444;28;20240;-65
2023/05/20 10:22:00;;;;;;;8.27;4.23;;;;;;;22.81;48.60;101184.28;4222729;28;20235;-66
2023/05/20 10:24:33;;;;;;;11.63;4.20;;;;;;;22.89;48.92;101176.63;4208877;28;20228;-63
2023/05/20 10:27:02;;;;;;;9.17;4.03;;;;;;;23.41;47.97;101176.03;4208704;28;20227;-64
2023/05/20 10:29:29;;;;;;;9.60;4.00;;;;;;;23.60;47.84;101173.41;4204011;28;20234;-63
2023/05/20 10:31:56;;;;;;;11.20;4.53;;;;;;;23.63;47.80;101176.59;4207875;28;20255;-65
2023/05/20 10:34:22;;;;;;;7.20;3.70;;;;;;;23.58;47.87;101180.00;4214442;28;20591;-65
2023/05/20 10:36:56;;;;;;;9.70;4.23;;;;;;;23.38;47.27;101166.22;4215809;28;20247;-64
2023/05/20 10:39:27;;;;;;;8.73;4.67;;;;;;;23.43;47.70;101162.81;4203215;28;21861;-62
2023/05/20 10:42:14;;;;;;;8.43;4.27;;;;;;;23.87;46.95;101158.44;4207179;28;20239;-48
2023/05/20 10:44:45;;;;;;;8.87;3.87;;;;;;;23.69;47.00;101161.91;4211627;28;20472;-65
2023/05/20 10:47:12;;;;;;;11.97;4.53;;;;;;;23.97;47.04;101149.75;4211103;28;20244;-66
2023/05/20 10:49:45;;;;;;;11.17;4.73;;;;;;;23.98;46.59;101143.13;4231040;28;25171;-64
2023/05/20 10:52:12;;;;;;;9.87;4.43;;;;;;;24.00;46.29;101140.97;4213801;28;20227;-63
2023/05/20 10:54:46;;;;;;;7.73;4.60;;;;;;;24.17;46.19;101141.31;4242395;28;25192;-62
2023/05/20 10:57:15;;;;;;;8.80;4.37;;;;;;;24.15;46.79;101129.66;4212017;28;22490;-64
2023/05/20 10:59:42;;;;;;;11.20;4.53;;;;;;;24.40;46.43;101141.84;4201808;28;20275;-64
2023/05/20 11:02:10;;;;;;;9.17;4.43;;;;;;;24.58;46.04;101144.72;4213108;28;20680;-67
2023/05/20 11:04:37;;;;;;;9.37;4.27;;;;;;;24.44;45.26;101129.25;4226203;28;20240;-67
2023/05/20 11:07:04;;;;;;;17.83;4.90;;;;;;;24.06;46.26;101125.44;4209705;28;23569;-65
2023/05/20 11:09:30;;;;;;;8.70;4.87;;;;;;;24.13;46.39;101125.41;4216201;28;22018;-66
2023/05/20 11:11:57;;;;;;;8.63;4.40;;;;;;;24.56;46.81;101118.31;4212530;28;20236;-67
2023/05/20 11:14:24;;;;;;;10.93;4.37;;;;;;;24.51;44.46;101117.06;4249635;28;20231;-64
2023/05/20 11:16:52;;;;;;;7.27;4.07;;;;;;;24.58;44.95;101121.72;4221724;28;20341;-64
2023/05/20 11:19:19;;;;;;;11.10;4.47;;;;;;;24.76;43.97;101113.53;4231368;28;20406;-66
2023/05/20 11:21:46;;;;;;;9.67;4.80;;;;;;;24.93;44.29;101112.94;4223912;28;21716;-66
2023/05/20 11:24:14;;;;;;;6.83;4.00;;;;;;;24.75;44.18;101114.59;4226279;28;20236;-64